createdAt,value
2023-02-24T00:02:00.096Z,99487.34
2023-02-24T00:04:30.212Z,99483.34
2023-02-24T00:06:57.715Z,99479.56
2023-02-24T00:09:27.498Z,99480.94
2023-02-24T00:12:02.243Z,99472.78
2023-02-24T00:14:34.063Z,99476.53
2023-02-24T00:17:04.639Z,99466.91
2023-02-24T00:19:32.824Z,99465.41
2023-02-24T00:22:01.544Z,99462.75
2023-02-24T00:24:29.832Z,99458.44
2023-02-24T00:27:01.098Z,99445.81
2023-02-24T00:29:30.016Z,99451.31
2023-02-24T00:32:02.410Z,99451.22
2023-02-24T00:34:33.920Z,99439.94
2023-02-24T00:37:02.065Z,99438.63
2023-02-24T00:39:30.855Z,99425.66
2023-02-24T00:42:04.722Z,99428.19
2023-02-24T00:44:35.323Z,99421.78
2023-02-24T00:47:05.055Z,99416.06
2023-02-24T00:49:33.245Z,99418.81
2023-02-24T00:52:00.450Z,99407.44
2023-02-24T00:54:28.498Z,99406.72
2023-02-24T00:56:57.061Z,99396.13
2023-02-24T00:59:24.552Z,99400.81
2023-02-24T01:01:52.331Z,99392.19
2023-02-24T01:04:20.157Z,99390.56
2023-02-24T01:07:00.123Z,99387.91
2023-02-24T01:09:30.885Z,99384.63
2023-02-24T01:12:18.191Z,99384.78
2023-02-24T01:14:48.233Z,99378.84
2023-02-24T01:17:18.339Z,99375.50
2023-02-24T01:19:49.153Z,99371.84
2023-02-24T01:22:18.834Z,99361.38
2023-02-24T01:24:47.206Z,99361.28
2023-02-24T01:27:18.842Z,99359.00
2023-02-24T01:29:47.883Z,99350.19
2023-02-24T01:32:21.224Z,99354.53
2023-02-24T01:34:52.790Z,99338.88
2023-02-24T01:37:21.231Z,99338.88
2023-02-24T01:39:49.026Z,99337.88
2023-02-24T01:42:19.868Z,99336.09
2023-02-24T01:44:48.162Z,99334.56
2023-02-24T01:47:21.958Z,99325.03
2023-02-24T01:49:54.077Z,99321.19
2023-02-24T01:52:30.609Z,99321.63
2023-02-24T01:55:29.353Z,99314.84
2023-02-24T01:57:58.486Z,99325.50
2023-02-24T02:00:38.034Z,99311.47
2023-02-24T02:03:16.166Z,99309.38
2023-02-24T02:05:45.325Z,99312.94
2023-02-24T02:08:13.734Z,99306.16
2023-02-24T02:10:44.409Z,99303.44
2023-02-24T02:13:21.240Z,99307.06
2023-02-24T02:16:15.180Z,99294.78
2023-02-24T02:18:51.050Z,99284.97
2023-02-24T02:21:44.367Z,99288.56
2023-02-24T02:24:37.506Z,99284.25
2023-02-24T02:27:21.080Z,99283.31
2023-02-24T02:30:43.956Z,99274.94
2023-02-24T02:34:00.496Z,99276.63
2023-02-24T02:36:50.567Z,99281.00
2023-02-24T02:39:43.265Z,99281.97
2023-02-24T02:42:36.041Z,99268.84
2023-02-24T02:45:13.366Z,99277.63
2023-02-24T02:48:07.051Z,99266.94
2023-02-24T02:50:55.010Z,99274.09
2023-02-24T02:53:41.287Z,99259.97
2023-02-24T02:56:30.703Z,99264.06
2023-02-24T02:58:59.798Z,99262.75
2023-02-24T03:01:37.678Z,99257.81
2023-02-24T03:04:08.542Z,99251.72
2023-02-24T03:06:45.158Z,99258.81
2023-02-24T03:09:29.475Z,99259.06
2023-02-24T03:12:08.001Z,99237.03
2023-02-24T03:14:46.106Z,99229.84
2023-02-24T03:17:21.815Z,99246.59
2023-02-24T03:20:01.394Z,99232.38
2023-02-24T03:22:37.549Z,99237.88
2023-02-24T03:25:06.315Z,99232.78
2023-02-24T03:27:53.276Z,99237.19
2023-02-24T03:30:44.397Z,99225.34
2023-02-24T03:33:35.009Z,99237.13
2023-02-24T03:36:02.163Z,99232.81
2023-02-24T03:38:33.113Z,99224.97
2023-02-24T03:41:00.353Z,99223.13
2023-02-24T03:43:32.592Z,99219.69
2023-02-24T03:46:01.409Z,99208.38
2023-02-24T03:48:29.220Z,99212.78
2023-02-24T03:50:56.767Z,99207.72
2023-02-24T03:54:05.690Z,99207.88
2023-02-24T03:57:00.192Z,99206.03
2023-02-24T03:59:52.971Z,99197.50
2023-02-24T04:02:30.261Z,99200.81
2023-02-24T04:05:09.901Z,99197.38
2023-02-24T04:08:07.215Z,99188.72
2023-02-24T04:11:05.280Z,99180.09
2023-02-24T04:13:47.954Z,99171.50
2023-02-24T04:16:28.941Z,99172.13
2023-02-24T04:19:14.062Z,99163.25
2023-02-24T04:21:45.357Z,99137.34
2023-02-24T04:24:15.974Z,99156.66
2023-02-24T04:26:46.837Z,99154.06
2023-02-24T04:29:23.372Z,99141.47
2023-02-24T04:32:01.155Z,99150.72
2023-02-24T04:34:32.457Z,99151.81
2023-02-24T04:37:02.377Z,99148.25
2023-02-24T04:39:31.292Z,99139.56
2023-02-24T04:42:01.730Z,99138.66
2023-02-24T04:44:29.217Z,99133.44
2023-02-24T04:46:56.625Z,99128.09
2023-02-24T04:49:23.664Z,99132.75
2023-02-24T04:51:51.657Z,99135.97
2023-02-24T04:54:21.265Z,99131.63
2023-02-24T04:56:51.101Z,99123.75
2023-02-24T04:59:20.209Z,99126.38
2023-02-24T05:01:47.683Z,99120.31
2023-02-24T05:04:15.175Z,99129.19
2023-02-24T05:06:43.994Z,99122.25
2023-02-24T05:09:14.648Z,99111.81
2023-02-24T05:11:48.978Z,99113.44
2023-02-24T05:14:20.891Z,99115.38
2023-02-24T05:16:49.443Z,99111.03
2023-02-24T05:19:38.630Z,99118.00
2023-02-24T05:22:07.300Z,99106.50
2023-02-24T05:24:35.017Z,99107.63
2023-02-24T05:27:03.937Z,99107.72
2023-02-24T05:29:35.463Z,99098.03
2023-02-24T05:32:04.728Z,99102.41
2023-02-24T05:34:33.612Z,99106.69
2023-02-24T05:37:07.484Z,99103.47
2023-02-24T05:39:35.153Z,99099.03
2023-02-24T05:42:06.691Z,99103.34
2023-02-24T05:44:35.676Z,99108.53
2023-02-24T05:47:05.475Z,99106.78
2023-02-24T05:49:35.274Z,99103.56
2023-02-24T05:52:08.975Z,99105.38
2023-02-24T05:54:43.995Z,99102.66
2023-02-24T05:57:15.400Z,99100.09
2023-02-24T05:59:44.716Z,99101.81
2023-02-24T06:02:15.891Z,99104.50
2023-02-24T06:04:51.153Z,99097.75
2023-02-24T06:07:24.728Z,99090.53
2023-02-24T06:09:56.670Z,99083.53
2023-02-24T06:12:30.915Z,99088.78
2023-02-24T06:14:58.439Z,99090.53
2023-02-24T06:17:26.445Z,99077.59
2023-02-24T06:19:54.461Z,99091.66
2023-02-24T06:22:25.119Z,99085.63
2023-02-24T06:24:54.855Z,99079.38
2023-02-24T06:27:24.881Z,99087.25
2023-02-24T06:29:54.969Z,99082.97
2023-02-24T06:32:25.708Z,99079.53
2023-02-24T06:34:54.135Z,99070.63
2023-02-24T06:37:23.048Z,99076.06
2023-02-24T06:39:50.919Z,99069.22
2023-02-24T06:42:18.077Z,99070.16
2023-02-24T06:44:45.355Z,99073.66
2023-02-24T06:47:14.545Z,99071.94
2023-02-24T06:49:42.968Z,99071.91
2023-02-24T06:52:11.759Z,99069.31
2023-02-24T06:54:39.058Z,99059.78
2023-02-24T06:57:06.454Z,99068.63
2023-02-24T06:59:34.317Z,99066.00
2023-02-24T07:02:03.429Z,99067.56
2023-02-24T07:04:30.694Z,99070.31
2023-02-24T07:07:03.349Z,99059.16
2023-02-24T07:09:32.209Z,99064.31
2023-02-24T07:12:02.662Z,99059.81
2023-02-24T07:14:31.474Z,99059.94
2023-02-24T07:16:59.665Z,99051.41
2023-02-24T07:19:32.362Z,99050.47
2023-02-24T07:22:03.258Z,99047.97
2023-02-24T07:24:36.713Z,99040.09
2023-02-24T07:27:22.311Z,99036.63
2023-02-24T07:29:53.238Z,99046.38
2023-02-24T07:32:23.123Z,99038.59
2023-02-24T07:34:50.251Z,99037.00
2023-02-24T07:37:17.307Z,99039.56
2023-02-24T07:39:44.311Z,99033.41
2023-02-24T07:42:15.427Z,99024.56
2023-02-24T07:44:44.606Z,99029.28
2023-02-24T07:47:11.866Z,99026.66
2023-02-24T07:49:40.967Z,99022.28
2023-02-24T07:52:08.919Z,99027.41
2023-02-24T07:54:37.341Z,99021.38
2023-02-24T07:57:06.531Z,99018.03
2023-02-24T07:59:37.843Z,99008.34
2023-02-24T08:02:07.819Z,99015.47
2023-02-24T08:04:36.445Z,99017.56
2023-02-24T08:07:04.413Z,99013.94
2023-02-24T08:09:46.480Z,99013.94
2023-02-24T08:12:22.592Z,99004.47
2023-02-24T08:14:53.400Z,99004.56
2023-02-24T08:17:24.198Z,99001.94
2023-02-24T08:20:29.052Z,99002.88
2023-02-24T08:22:56.657Z,98995.00
2023-02-24T08:25:35.843Z,98995.94
2023-02-24T08:28:09.699Z,98999.59
2023-02-24T08:30:46.761Z,98996.03
2023-02-24T08:33:22.062Z,98978.38
2023-02-24T08:36:01.110Z,98987.22
2023-02-24T08:38:41.993Z,98985.53
2023-02-24T08:41:21.093Z,98983.66
2023-02-24T08:43:49.756Z,98988.16
2023-02-24T08:46:26.841Z,98981.13
2023-02-24T08:49:01.145Z,98971.56
2023-02-24T08:51:34.591Z,98978.50
2023-02-24T08:54:11.380Z,98975.94
2023-02-24T08:56:43.778Z,98970.81
2023-02-24T08:59:29.187Z,98961.31
2023-02-24T09:02:18.370Z,98962.97
2023-02-24T09:04:47.613Z,98956.81
2023-02-24T09:07:21.735Z,98955.94
2023-02-24T09:09:49.883Z,98944.59
2023-02-24T09:12:24.974Z,98955.03
2023-02-24T09:15:01.945Z,98941.00
2023-02-24T09:17:40.288Z,98937.66
2023-02-24T09:20:25.890Z,98941.09
2023-02-24T09:23:03.428Z,98941.19
2023-02-24T09:25:44.071Z,98934.34
2023-02-24T09:28:17.844Z,98937.63
2023-02-24T09:30:51.430Z,98936.72
2023-02-24T09:33:24.589Z,98930.56
2023-02-24T09:36:10.826Z,98931.59
2023-02-24T09:38:58.696Z,98923.75
2023-02-24T09:42:18.121Z,98918.47
2023-02-24T09:44:55.766Z,98920.44
2023-02-24T09:47:55.686Z,98923.09
2023-02-24T09:50:55.503Z,98916.16
2023-02-24T09:53:18.540Z,98910.78
2023-02-24T09:56:05.698Z,98913.56
2023-02-24T09:58:48.104Z,98918.00
2023-02-24T10:01:53.240Z,98919.00
2023-02-24T10:05:10.413Z,98913.72
2023-02-24T10:07:43.966Z,98910.97
2023-02-24T10:10:28.443Z,98904.97
2023-02-24T10:13:30.419Z,98912.22
2023-02-24T10:16:07.134Z,98902.34
2023-02-24T10:19:15.259Z,98908.47
2023-02-24T10:22:03.330Z,98897.88
2023-02-24T10:24:59.171Z,98890.81
2023-02-24T10:28:23.251Z,98891.81
2023-02-24T10:31:01.705Z,98891.16
2023-02-24T10:33:39.056Z,98887.56
2023-02-24T10:36:17.300Z,98882.16
2023-02-24T10:38:45.793Z,98880.38
2023-02-24T10:41:16.844Z,98872.88
2023-02-24T10:43:57.569Z,98856.28
2023-02-24T10:46:41.153Z,98869.44
2023-02-24T10:49:16.534Z,98862.41
2023-02-24T10:51:52.444Z,98863.19
2023-02-24T10:54:45.210Z,98846.34
2023-02-24T10:57:18.809Z,98855.13
2023-02-24T11:00:35.627Z,98847.25
2023-02-24T11:03:10.691Z,98847.28
2023-02-24T11:06:04.178Z,98839.41
2023-02-24T11:08:39.584Z,98839.38
2023-02-24T11:11:29.760Z,98837.50
2023-02-24T11:14:20.573Z,98837.63
2023-02-24T11:17:13.902Z,98824.47
2023-02-24T11:20:01.769Z,98818.53
2023-02-24T11:22:41.554Z,98816.00
2023-02-24T11:25:27.003Z,98814.09
2023-02-24T11:27:56.658Z,98809.69
2023-02-24T11:30:46.220Z,98807.75
2023-02-24T11:33:27.829Z,98802.59
2023-02-24T11:36:25.191Z,98794.66
2023-02-24T11:39:22.730Z,98789.38
2023-02-24T11:41:55.580Z,98788.63
2023-02-24T11:45:07.290Z,98786.91
2023-02-24T11:47:53.010Z,98783.56
2023-02-24T11:50:52.270Z,98770.59
2023-02-24T11:53:41.214Z,98773.47
2023-02-24T11:56:38.365Z,98771.06
2023-02-24T11:59:36.411Z,98773.69
2023-02-24T12:02:16.869Z,98767.72
2023-02-24T12:05:13.575Z,98775.56
2023-02-24T12:07:48.749Z,98752.56
2023-02-24T12:10:31.533Z,98758.81
2023-02-24T12:14:00.804Z,98757.03
2023-02-24T12:16:38.124Z,98759.59
2023-02-24T12:19:27.728Z,98763.97
2023-02-24T12:22:11.356Z,98754.22
2023-02-24T12:24:49.958Z,98752.41
2023-02-24T12:27:41.279Z,98754.97
2023-02-24T12:30:49.024Z,98743.47
2023-02-24T12:33:44.890Z,98736.50
2023-02-24T12:36:45.483Z,98729.91
2023-02-24T12:39:39.644Z,98735.59
2023-02-24T12:42:51.553Z,98715.28
2023-02-24T12:45:33.950Z,98718.78
2023-02-24T12:48:28.131Z,98707.19
2023-02-24T12:51:06.037Z,98707.31
2023-02-24T12:54:06.786Z,98702.81
2023-02-24T12:56:40.915Z,98704.50
2023-02-24T12:59:11.561Z,98694.00
2023-02-24T13:02:03.401Z,98701.00
2023-02-24T13:05:19.905Z,98689.59
2023-02-24T13:08:23.790Z,98679.97
2023-02-24T13:10:59.492Z,98679.91
2023-02-24T13:14:07.394Z,98675.47
2023-02-24T13:16:36.183Z,98672.00
2023-02-24T13:19:28.115Z,98664.91
2023-02-24T13:22:13.276Z,98674.50
2023-02-24T13:25:07.691Z,98663.09
2023-02-24T13:27:42.746Z,98665.78
2023-02-24T13:30:30.509Z,98666.66
2023-02-24T13:33:36.029Z,98656.97
2023-02-24T13:36:14.837Z,98659.50
2023-02-24T13:38:48.274Z,98649.78
2023-02-24T13:41:27.525Z,98654.19
2023-02-24T13:44:04.438Z,98645.56
2023-02-24T13:47:13.346Z,98648.28
2023-02-24T13:50:19.728Z,98635.84
2023-02-24T13:52:58.810Z,98635.09
2023-02-24T13:56:02.774Z,98632.53
2023-02-24T13:59:05.245Z,98629.94
2023-02-24T14:01:45.676Z,98630.88
2023-02-24T14:04:24.462Z,98629.03
2023-02-24T14:07:18.880Z,98628.09
2023-02-24T14:09:52.336Z,98622.75
2023-02-24T14:12:28.764Z,98627.16
2023-02-24T14:14:57.244Z,98630.66
2023-02-24T14:17:36.577Z,98625.38
2023-02-24T14:20:14.347Z,98621.00
2023-02-24T14:22:53.198Z,98615.69
2023-02-24T14:25:25.094Z,98608.75
2023-02-24T14:27:55.726Z,98606.88
2023-02-24T14:30:31.467Z,98597.28
2023-02-24T14:32:59.213Z,98599.03
2023-02-24T14:35:47.448Z,98607.75
2023-02-24T14:38:43.934Z,98603.47
2023-02-24T14:41:25.110Z,98586.78
2023-02-24T14:43:53.127Z,98594.75
2023-02-24T14:46:21.019Z,98594.28
2023-02-24T14:48:55.222Z,98579.03
2023-02-24T14:51:37.445Z,98570.09
2023-02-24T14:54:14.213Z,98568.25
2023-02-24T14:56:41.620Z,98569.09
2023-02-24T14:59:38.350Z,98580.59
2023-02-24T15:02:20.587Z,98572.59
2023-02-24T15:04:48.363Z,98573.31
2023-02-24T15:07:21.371Z,98566.88
2023-02-24T15:09:51.785Z,98571.19
2023-02-24T15:12:43.648Z,98571.03
2023-02-24T15:15:35.098Z,98562.88
2023-02-24T15:18:17.506Z,98560.03
2023-02-24T15:20:44.624Z,98555.44
2023-02-24T15:23:34.932Z,98562.44
2023-02-24T15:26:02.660Z,98547.25
2023-02-24T15:28:33.998Z,98545.28
2023-02-24T15:31:03.322Z,98538.06
2023-02-24T15:33:44.557Z,98543.97
2023-02-24T15:36:18.924Z,98540.41
2023-02-24T15:38:46.749Z,98534.91
2023-02-24T15:41:14.835Z,98536.81
2023-02-24T15:43:47.940Z,98552.97
2023-02-24T15:46:19.586Z,98543.31
2023-02-24T15:48:49.803Z,98561.09
2023-02-24T15:51:45.021Z,98556.75
2023-02-24T15:54:24.829Z,98556.72
2023-02-24T15:56:51.901Z,98554.94
2023-02-24T15:59:21.953Z,98545.22
2023-02-24T16:01:49.242Z,98552.22
2023-02-24T16:04:16.335Z,98556.56
2023-02-24T16:06:54.751Z,98555.72
2023-02-24T16:09:36.685Z,98551.16
2023-02-24T16:12:16.374Z,98560.69
2023-02-24T16:14:44.675Z,98569.50
2023-02-24T16:17:35.723Z,98568.66
2023-02-24T16:20:08.524Z,98565.00
2023-02-24T16:22:36.138Z,98579.84
2023-02-24T16:25:04.251Z,98565.66
2023-02-24T16:27:31.474Z,98574.28
2023-02-24T16:30:00.339Z,98574.16
2023-02-24T16:32:27.677Z,98573.19
2023-02-24T16:34:54.996Z,98566.00
2023-02-24T16:37:27.583Z,98563.44
2023-02-24T16:39:55.433Z,98577.31
2023-02-24T16:42:30.997Z,98561.47
2023-02-24T16:44:58.013Z,98567.53
2023-02-24T16:47:25.971Z,98560.44
2023-02-24T16:49:57.941Z,98565.66
2023-02-24T16:52:25.183Z,98569.91
2023-02-24T16:54:52.276Z,98566.44
2023-02-24T16:57:19.264Z,98555.78
2023-02-24T16:59:46.531Z,98567.91
2023-02-24T17:02:24.447Z,98568.53
2023-02-24T17:04:51.506Z,98556.25
2023-02-24T17:07:20.912Z,98564.88
2023-02-24T17:09:47.956Z,98570.00
2023-02-24T17:12:21.358Z,98557.44
2023-02-24T17:14:48.671Z,98560.19
2023-02-24T17:17:15.829Z,98562.75
2023-02-24T17:19:42.871Z,98557.44
2023-02-24T17:22:10.537Z,98561.69
2023-02-24T17:24:37.542Z,98558.97
2023-02-24T17:27:04.779Z,98548.34
2023-02-24T17:29:31.870Z,98546.50
2023-02-24T17:31:59.159Z,98554.38
2023-02-24T17:34:26.357Z,98551.75
2023-02-24T17:36:53.407Z,98548.03
2023-02-24T17:39:20.374Z,98550.50
2023-02-24T17:41:47.386Z,98542.69
2023-02-24T17:44:14.427Z,98542.56
2023-02-24T17:46:41.495Z,98526.63
2023-02-24T17:49:08.976Z,98530.34
2023-02-24T17:51:36.113Z,98531.94
2023-02-24T17:54:03.541Z,98525.09
2023-02-24T17:56:30.586Z,98517.16
2023-02-24T17:59:01.143Z,98518.75
2023-02-24T18:01:28.746Z,98508.34
2023-02-24T18:03:57.509Z,98510.13
2023-02-24T18:06:25.414Z,98503.16
2023-02-24T18:08:52.462Z,98506.69
2023-02-24T18:11:20.525Z,98506.63
2023-02-24T18:13:51.006Z,98498.75
2023-02-24T18:16:18.590Z,98496.97
2023-02-24T18:18:45.763Z,98499.53
2023-02-24T18:21:12.820Z,98502.94
2023-02-24T18:23:40.527Z,98503.03
2023-02-24T18:26:10.327Z,98495.88
2023-02-24T18:28:37.916Z,98498.53
2023-02-24T18:31:17.494Z,98496.59
2023-02-24T18:33:44.958Z,98495.72
2023-02-24T18:36:12.717Z,98486.16
2023-02-24T18:38:39.876Z,98475.59
2023-02-24T18:41:11.838Z,98476.25
2023-02-24T18:43:38.965Z,98470.91
2023-02-24T18:46:11.337Z,98456.06
2023-02-24T18:48:40.126Z,98460.53
2023-02-24T18:51:08.447Z,98462.22
2023-02-24T18:53:38.226Z,98466.63
2023-02-24T18:56:10.893Z,98462.06
2023-02-24T18:58:39.877Z,98446.31
2023-02-24T19:01:22.778Z,98445.28
2023-02-24T19:03:51.711Z,98439.22
2023-02-24T19:06:21.541Z,98437.44
2023-02-24T19:08:54.728Z,98431.25
2023-02-24T19:11:21.751Z,98435.84
2023-02-24T19:13:49.067Z,98425.25
2023-02-24T19:16:18.589Z,98430.34
2023-02-24T19:18:49.418Z,98417.03
2023-02-24T19:21:16.424Z,98416.13
2023-02-24T19:23:43.469Z,98416.13
2023-02-24T19:26:24.152Z,98408.06
2023-02-24T19:28:52.272Z,98399.34
2023-02-24T19:31:26.945Z,98396.50
2023-02-24T19:33:56.751Z,98389.53
2023-02-24T19:36:24.920Z,98388.47
2023-02-24T19:38:52.538Z,98391.97
2023-02-24T19:41:19.886Z,98385.75
2023-02-24T19:43:46.902Z,98387.53
2023-02-24T19:46:16.422Z,98384.88
2023-02-24T19:48:43.741Z,98381.16
2023-02-24T19:51:20.878Z,98380.19
2023-02-24T19:53:51.450Z,98374.22
2023-02-24T19:56:23.574Z,98383.66
2023-02-24T19:58:57.016Z,98380.97
2023-02-24T20:01:25.806Z,98385.47
2023-02-24T20:04:02.413Z,98388.09
2023-02-24T20:06:36.516Z,98382.69
2023-02-24T20:09:17.710Z,98372.00
2023-02-24T20:11:46.104Z,98376.47
2023-02-24T20:14:15.856Z,98370.41
2023-02-24T20:16:44.321Z,98377.22
2023-02-24T20:19:14.188Z,98368.41
2023-02-24T20:21:42.134Z,98362.53
2023-02-24T20:24:13.894Z,98362.38
2023-02-24T20:26:43.761Z,98361.50
2023-02-24T20:29:11.527Z,98362.38
2023-02-24T20:31:40.027Z,98349.16
2023-02-24T20:34:09.301Z,98357.91
2023-02-24T20:36:37.174Z,98345.56
2023-02-24T20:39:06.677Z,98358.91
2023-02-24T20:41:34.602Z,98354.63
2023-02-24T20:44:01.827Z,98350.16
2023-02-24T20:46:32.042Z,98339.69
2023-02-24T20:49:06.766Z,98346.72
2023-02-24T20:51:39.676Z,98343.19
2023-02-24T20:54:09.372Z,98338.03
2023-02-24T20:56:40.582Z,98338.84
2023-02-24T20:59:20.300Z,98328.38
2023-02-24T21:01:48.659Z,98314.22
2023-02-24T21:04:20.094Z,98317.91
2023-02-24T21:06:48.161Z,98317.94
2023-02-24T21:09:16.349Z,98320.50
2023-02-24T21:11:43.509Z,98319.47
2023-02-24T21:14:15.919Z,98315.31
2023-02-24T21:16:43.036Z,98309.28
2023-02-24T21:19:10.071Z,98306.75
2023-02-24T21:21:37.059Z,98301.50
2023-02-24T21:24:04.969Z,98300.69
2023-02-24T21:26:32.042Z,98302.47
2023-02-24T21:28:59.397Z,98290.19
2023-02-24T21:31:27.594Z,98285.97
2023-02-24T21:33:55.423Z,98280.78
2023-02-24T21:36:26.149Z,98279.63
2023-02-24T21:38:54.881Z,98275.31
2023-02-24T21:41:23.773Z,98268.22
2023-02-24T21:43:55.907Z,98274.31
2023-02-24T21:46:28.090Z,98261.47
2023-02-24T21:48:57.991Z,98259.75
2023-02-24T21:51:27.294Z,98259.81
2023-02-24T21:53:57.160Z,98257.13
2023-02-24T21:56:28.549Z,98244.88
2023-02-24T21:59:01.905Z,98243.09
2023-02-24T22:01:41.479Z,98231.69
2023-02-24T22:04:13.558Z,98225.75
2023-02-24T22:06:44.859Z,98224.81
2023-02-24T22:09:19.966Z,98219.47
2023-02-24T22:11:49.874Z,98219.47
2023-02-24T22:14:17.684Z,98226.47
2023-02-24T22:16:45.161Z,98221.13
2023-02-24T22:19:12.648Z,98222.91
2023-02-24T22:21:42.422Z,98214.09
2023-02-24T22:24:16.369Z,98207.09
2023-02-24T22:26:44.773Z,98193.00
2023-02-24T22:29:12.310Z,98203.72
2023-02-24T22:31:43.419Z,98199.38
2023-02-24T22:34:11.047Z,98193.19
2023-02-24T22:36:38.253Z,98190.72
2023-02-24T22:39:06.709Z,98190.78
2023-02-24T22:41:36.247Z,98186.22
2023-02-24T22:44:06.166Z,98186.38
2023-02-24T22:46:37.408Z,98180.50
2023-02-24T22:49:05.639Z,98174.25
2023-02-24T22:51:32.913Z,98160.25
2023-02-24T22:53:59.923Z,98165.59
2023-02-24T22:56:29.218Z,98170.72
2023-02-24T22:58:57.624Z,98175.97
2023-02-24T23:01:32.135Z,98160.22
2023-02-24T23:04:01.707Z,98146.31
2023-02-24T23:06:30.805Z,98147.06
2023-02-24T23:09:00.221Z,98153.22
2023-02-24T23:11:38.144Z,98141.75
2023-02-24T23:14:10.023Z,98141.72
2023-02-24T23:16:38.700Z,98144.44
2023-02-24T23:19:12.906Z,98146.22
2023-02-24T23:21:44.333Z,98141.88
2023-02-24T23:24:14.370Z,98138.22
2023-02-24T23:26:49.059Z,98138.28
2023-02-24T23:29:18.332Z,98128.78
2023-02-24T23:31:46.218Z,98124.41
2023-02-24T23:34:15.181Z,98114.69
2023-02-24T23:36:45.292Z,98118.16
2023-02-24T23:39:15.801Z,98112.91
2023-02-24T23:41:43.406Z,98110.34
2023-02-24T23:44:10.708Z,98109.50
2023-02-24T23:46:37.834Z,98085.75
2023-02-24T23:49:05.723Z,98068.16
2023-02-24T23:51:47.192Z,98076.94
2023-02-24T23:54:17.288Z,98065.75
2023-02-24T23:56:44.417Z,98057.97
2023-02-24T23:59:11.967Z,98058.81
